sensor_id;sensor_type;location;lat;lon;timestamp;pressure;altitude;pressure_sealevel;temperature;humidity
77469;BME280;66567;50.272;12.818;2023-02-04T00:00:08;96281;;;1.9;78.3
77469;BME280;66567;50.272;12.818;2023-02-04T00:02:05;96280;;;1.9;78.4
77469;BME280;66567;50.272;12.818;2023-02-04T00:04:05;96285;;;1.9;78.5
77469;BME280;66567;50.272;12.818;2023-02-04T00:06:05;96282;;;1.9;78.5
77469;BME280;66567;50.272;12.818;2023-02-04T00:08:06;96289;;;1.9;78.5
77469;BME280;66567;50.272;12.818;2023-02-04T00:10:05;96295;;;1.9;78.6
77469;BME280;66567;50.272;12.818;2023-02-04T00:12:05;96300;;;1.9;78.6
77469;BME280;66567;50.272;12.818;2023-02-04T00:14:05;96299;;;1.9;78.7
77469;BME280;66567;50.272;12.818;2023-02-04T00:16:05;96301;;;1.8;78.8
77469;BME280;66567;50.272;12.818;2023-02-04T00:18:06;96301;;;1.8;79.0
77469;BME280;66567;50.272;12.818;2023-02-04T00:20:05;96299;;;1.8;79.0
77469;BME280;66567;50.272;12.818;2023-02-04T00:22:07;96296;;;1.8;78.9
77469;BME280;66567;50.272;12.818;2023-02-04T00:24:05;96297;;;1.8;78.7
77469;BME280;66567;50.272;12.818;2023-02-04T00:26:05;96302;;;1.8;78.9
77469;BME280;66567;50.272;12.818;2023-02-04T00:28:05;96306;;;1.8;78.7
77469;BME280;66567;50.272;12.818;2023-02-04T00:30:06;96313;;;1.8;78.7
77469;BME280;66567;50.272;12.818;2023-02-04T00:32:05;96310;;;1.8;78.8
77469;BME280;66567;50.272;12.818;2023-02-04T00:34:05;96307;;;1.8;78.8
77469;BME280;66567;50.272;12.818;2023-02-04T00:36:05;96305;;;1.8;78.8
77469;BME280;66567;50.272;12.818;2023-02-04T00:38:05;96307;;;1.8;78.8
77469;BME280;66567;50.272;12.818;2023-02-04T00:40:06;96304;;;1.8;78.6
77469;BME280;66567;50.272;12.818;2023-02-04T00:42:05;96303;;;1.8;78.9
77469;BME280;66567;50.272;12.818;2023-02-04T00:44:05;96301;;;1.8;78.9
77469;BME280;66567;50.272;12.818;2023-02-04T00:46:05;96305;;;1.8;79.0
77469;BME280;66567;50.272;12.818;2023-02-04T00:48:05;96306;;;1.8;79.0
77469;BME280;66567;50.272;12.818;2023-02-04T00:50:05;96307;;;1.8;79.0
77469;BME280;66567;50.272;12.818;2023-02-04T00:52:05;96319;;;1.8;79.1
77469;BME280;66567;50.272;12.818;2023-02-04T00:54:06;96323;;;1.8;78.9
77469;BME280;66567;50.272;12.818;2023-02-04T00:56:05;96323;;;1.8;79.0
77469;BME280;66567;50.272;12.818;2023-02-04T00:58:05;96319;;;1.8;78.9
77469;BME280;66567;50.272;12.818;2023-02-04T01:00:05;96318;;;1.8;78.9
77469;BME280;66567;50.272;12.818;2023-02-04T01:02:05;96323;;;1.8;78.8
77469;BME280;66567;50.272;12.818;2023-02-04T01:04:05;96324;;;1.8;79.0
77469;BME280;66567;50.272;12.818;2023-02-04T01:06:05;96328;;;1.9;79.1
77469;BME280;66567;50.272;12.818;2023-02-04T01:08:05;96328;;;1.9;79.1
77469;BME280;66567;50.272;12.818;2023-02-04T01:10:05;96334;;;1.9;79.0
77469;BME280;66567;50.272;12.818;2023-02-04T01:12:05;96333;;;1.9;78.9
77469;BME280;66567;50.272;12.818;2023-02-04T01:14:05;96340;;;1.9;78.9
77469;BME280;66567;50.272;12.818;2023-02-04T01:16:05;96338;;;1.9;78.9
77469;BME280;66567;50.272;12.818;2023-02-04T01:18:05;96335;;;1.9;78.8
77469;BME280;66567;50.272;12.818;2023-02-04T01:20:06;96339;;;1.9;78.9
77469;BME280;66567;50.272;12.818;2023-02-04T01:22:05;96347;;;1.9;79.0
77469;BME280;66567;50.272;12.818;2023-02-04T01:24:05;96349;;;1.9;79.0
77469;BME280;66567;50.272;12.818;2023-02-04T01:26:05;96345;;;1.9;79.0
77469;BME280;66567;50.272;12.818;2023-02-04T01:28:05;96352;;;1.9;79.0
77469;BME280;66567;50.272;12.818;2023-02-04T01:30:06;96347;;;1.9;78.8
77469;BME280;66567;50.272;12.818;2023-02-04T01:32:05;96344;;;1.9;78.9
77469;BME280;66567;50.272;12.818;2023-02-04T01:34:06;96348;;;1.9;78.8
77469;BME280;66567;50.272;12.818;2023-02-04T01:36:05;96355;;;1.9;78.7
77469;BME280;66567;50.272;12.818;2023-02-04T01:38:05;96357;;;2.0;78.6
77469;BME280;66567;50.272;12.818;2023-02-04T01:40:06;96362;;;2.0;78.5
77469;BME280;66567;50.272;12.818;2023-02-04T01:42:05;96369;;;2.0;78.5
77469;BME280;66567;50.272;12.818;2023-02-04T01:44:05;96378;;;2.0;78.2
77469;BME280;66567;50.272;12.818;2023-02-04T01:46:05;96386;;;2.0;78.1
77469;BME280;66567;50.272;12.818;2023-02-04T01:48:05;96391;;;2.0;77.9
77469;BME280;66567;50.272;12.818;2023-02-04T01:50:06;96404;;;2.0;77.9
77469;BME280;66567;50.272;12.818;2023-02-04T01:52:05;96409;;;2.0;77.8
77469;BME280;66567;50.272;12.818;2023-02-04T01:54:07;96416;;;2.0;77.9
77469;BME280;66567;50.272;12.818;2023-02-04T01:56:17;96432;;;2.0;77.9
77469;BME280;66567;50.272;12.818;2023-02-04T01:58:08;96441;;;2.0;77.0
77469;BME280;66567;50.272;12.818;2023-02-04T02:00:09;96448;;;1.9;76.1
77469;BME280;66567;50.272;12.818;2023-02-04T02:04:05;96454;;;1.8;74.9
77469;BME280;66567;50.272;12.818;2023-02-04T02:06:06;96465;;;1.7;75.3
77469;BME280;66567;50.272;12.818;2023-02-04T02:08:05;96465;;;1.6;75.5
77469;BME280;66567;50.272;12.818;2023-02-04T02:10:06;96465;;;1.5;75.6
77469;BME280;66567;50.272;12.818;2023-02-04T02:12:05;96460;;;1.4;75.8
77469;BME280;66567;50.272;12.818;2023-02-04T02:14:05;96471;;;1.3;76.3
77469;BME280;66567;50.272;12.818;2023-02-04T02:16:05;96474;;;1.2;76.5
77469;BME280;66567;50.272;12.818;2023-02-04T02:18:05;96486;;;1.1;76.7
77469;BME280;66567;50.272;12.818;2023-02-04T02:20:10;96494;;;1.0;76.8
77469;BME280;66567;50.272;12.818;2023-02-04T02:22:34;96498;;;1.0;77.0
77469;BME280;66567;50.272;12.818;2023-02-04T02:24:31;96501;;;0.9;77.1
77469;BME280;66567;50.272;12.818;2023-02-04T02:26:05;96511;;;0.8;77.2
77469;BME280;66567;50.272;12.818;2023-02-04T02:28:10;96508;;;0.7;77.4
77469;BME280;66567;50.272;12.818;2023-02-04T02:30:06;96516;;;0.7;77.5
77469;BME280;66567;50.272;12.818;2023-02-04T02:32:05;96529;;;0.6;77.4
77469;BME280;66567;50.272;12.818;2023-02-04T02:34:05;96529;;;0.6;77.7
77469;BME280;66567;50.272;12.818;2023-02-04T02:36:05;96529;;;0.5;77.7
77469;BME280;66567;50.272;12.818;2023-02-04T02:38:05;96536;;;0.5;77.8
77469;BME280;66567;50.272;12.818;2023-02-04T02:40:06;96536;;;0.5;78.1
77469;BME280;66567;50.272;12.818;2023-02-04T02:42:05;96537;;;0.5;78.1
77469;BME280;66567;50.272;12.818;2023-02-04T02:44:05;96550;;;0.4;77.9
77469;BME280;66567;50.272;12.818;2023-02-04T02:46:05;96560;;;0.4;77.8
77469;BME280;66567;50.272;12.818;2023-02-04T02:48:05;96565;;;0.4;77.3
77469;BME280;66567;50.272;12.818;2023-02-04T02:50:05;96576;;;0.4;77.3
77469;BME280;66567;50.272;12.818;2023-02-04T02:52:05;96584;;;0.4;77.5
77469;BME280;66567;50.272;12.818;2023-02-04T02:54:07;96589;;;0.4;77.8
77469;BME280;66567;50.272;12.818;2023-02-04T02:56:05;96592;;;0.4;77.7
77469;BME280;66567;50.272;12.818;2023-02-04T02:58:14;96593;;;0.3;77.5
77469;BME280;66567;50.272;12.818;2023-02-04T03:00:14;96605;;;0.3;77.2
77469;BME280;66567;50.272;12.818;2023-02-04T03:02:05;96608;;;0.3;76.9
77469;BME280;66567;50.272;12.818;2023-02-04T03:04:05;96608;;;0.3;76.7
77469;BME280;66567;50.272;12.818;2023-02-04T03:06:09;96610;;;0.3;76.5
77469;BME280;66567;50.272;12.818;2023-02-04T03:08:05;96610;;;0.3;76.6
77469;BME280;66567;50.272;12.818;2023-02-04T03:10:05;96620;;;0.2;76.2
77469;BME280;66567;50.272;12.818;2023-02-04T03:12:05;96634;;;0.2;76.3
77469;BME280;66567;50.272;12.818;2023-02-04T03:14:05;96639;;;0.2;76.1
77469;BME280;66567;50.272;12.818;2023-02-04T03:16:06;96650;;;0.2;75.9
77469;BME280;66567;50.272;12.818;2023-02-04T03:18:05;96665;;;0.2;75.6
77469;BME280;66567;50.272;12.818;2023-02-04T03:20:05;96683;;;0.2;75.6
77469;BME280;66567;50.272;12.818;2023-02-04T03:22:05;96691;;;0.2;75.3
77469;BME280;66567;50.272;12.818;2023-02-04T03:24:05;96699;;;0.2;75.4
77469;BME280;66567;50.272;12.818;2023-02-04T03:26:05;96715;;;0.2;75.5
77469;BME280;66567;50.272;12.818;2023-02-04T03:28:05;96727;;;0.2;75.3
77469;BME280;66567;50.272;12.818;2023-02-04T03:30:06;96744;;;0.2;75.4
77469;BME280;66567;50.272;12.818;2023-02-04T03:32:05;96754;;;0.1;74.9
77469;BME280;66567;50.272;12.818;2023-02-04T03:34:05;96769;;;0.1;74.7
77469;BME280;66567;50.272;12.818;2023-02-04T03:36:06;96788;;;0.1;74.5
77469;BME280;66567;50.272;12.818;2023-02-04T03:38:05;96802;;;0.1;74.0
77469;BME280;66567;50.272;12.818;2023-02-04T03:40:05;96810;;;0.1;74.1
77469;BME280;66567;50.272;12.818;2023-02-04T03:42:05;96817;;;0.1;73.8
77469;BME280;66567;50.272;12.818;2023-02-04T03:44:05;96828;;;0.1;73.5
77469;BME280;66567;50.272;12.818;2023-02-04T03:46:05;96839;;;0.0;73.1
77469;BME280;66567;50.272;12.818;2023-02-04T03:48:05;96855;;;0.0;73.1
77469;BME280;66567;50.272;12.818;2023-02-04T03:50:05;96871;;;0.0;72.5
77469;BME280;66567;50.272;12.818;2023-02-04T03:52:05;96877;;;0.0;72.8
77469;BME280;66567;50.272;12.818;2023-02-04T03:54:05;96879;;;0.1;73.0
77469;BME280;66567;50.272;12.818;2023-02-04T08:06:05;97461;;;-0.8;71.8
77469;BME280;66567;50.272;12.818;2023-02-04T08:08:05;97462;;;-0.5;71.1
77469;BME280;66567;50.272;12.818;2023-02-04T08:10:06;97463;;;-0.0;69.9
77469;BME280;66567;50.272;12.818;2023-02-04T08:12:05;97466;;;0.5;68.8
77469;BME280;66567;50.272;12.818;2023-02-04T08:14:05;97471;;;1.0;66.5
77469;BME280;66567;50.272;12.818;2023-02-04T08:16:05;97475;;;1.3;64.4
77469;BME280;66567;50.272;12.818;2023-02-04T08:18:05;97479;;;1.6;63.8
77469;BME280;66567;50.272;12.818;2023-02-04T08:20:05;97478;;;1.8;61.3
77469;BME280;66567;50.272;12.818;2023-02-04T08:22:05;97484;;;2.0;62.3
77469;BME280;66567;50.272;12.818;2023-02-04T08:24:05;97488;;;2.2;62.5
77469;BME280;66567;50.272;12.818;2023-02-04T08:26:05;97490;;;2.4;61.9
77469;BME280;66567;50.272;12.818;2023-02-04T08:28:05;97488;;;2.6;61.1
77469;BME280;66567;50.272;12.818;2023-02-04T08:30:05;97493;;;2.7;60.5
77469;BME280;66567;50.272;12.818;2023-02-04T08:32:05;97497;;;2.8;59.7
77469;BME280;66567;50.272;12.818;2023-02-04T08:34:05;97502;;;2.8;59.8
77469;BME280;66567;50.272;12.818;2023-02-04T08:36:06;97510;;;2.9;59.8
77469;BME280;66567;50.272;12.818;2023-02-04T08:38:05;97514;;;3.0;59.7
77469;BME280;66567;50.272;12.818;2023-02-04T08:40:05;97516;;;3.0;57.9
77469;BME280;66567;50.272;12.818;2023-02-04T08:42:05;97517;;;3.0;57.2
77469;BME280;66567;50.272;12.818;2023-02-04T08:46:06;97519;;;2.8;57.4
77469;BME280;66567;50.272;12.818;2023-02-04T08:48:06;97518;;;2.8;58.1
77469;BME280;66567;50.272;12.818;2023-02-04T08:50:06;97525;;;2.8;57.5
77469;BME280;66567;50.272;12.818;2023-02-04T08:52:06;97532;;;2.8;57.9
77469;BME280;66567;50.272;12.818;2023-02-04T08:54:05;97534;;;2.8;56.8
77469;BME280;66567;50.272;12.818;2023-02-04T08:56:06;97534;;;2.9;56.5
77469;BME280;66567;50.272;12.818;2023-02-04T08:58:05;97535;;;3.1;56.8
77469;BME280;66567;50.272;12.818;2023-02-04T09:00:08;97537;;;3.2;56.3
77469;BME280;66567;50.272;12.818;2023-02-04T09:02:05;97539;;;3.4;56.3
77469;BME280;66567;50.272;12.818;2023-02-04T09:04:06;97539;;;3.4;55.4
77469;BME280;66567;50.272;12.818;2023-02-04T09:06:06;97543;;;3.5;55.5
77469;BME280;66567;50.272;12.818;2023-02-04T09:08:05;97546;;;3.5;54.5
77469;BME280;66567;50.272;12.818;2023-02-04T09:10:05;97546;;;3.6;55.5
77469;BME280;66567;50.272;12.818;2023-02-04T09:12:05;97549;;;3.6;54.4
77469;BME280;66567;50.272;12.818;2023-02-04T09:14:06;97550;;;3.7;54.5
77469;BME280;66567;50.272;12.818;2023-02-04T09:16:05;97555;;;3.8;54.4
77469;BME280;66567;50.272;12.818;2023-02-04T09:18:13;97560;;;4.0;52.6
77469;BME280;66567;50.272;12.818;2023-02-04T09:20:06;97564;;;4.1;52.3
77469;BME280;66567;50.272;12.818;2023-02-04T09:22:05;97567;;;4.2;52.1
77469;BME280;66567;50.272;12.818;2023-02-04T09:24:05;97570;;;4.3;51.7
77469;BME280;66567;50.272;12.818;2023-02-04T09:26:05;97574;;;4.4;51.9
77469;BME280;66567;50.272;12.818;2023-02-04T09:28:06;97582;;;4.4;50.9
77469;BME280;66567;50.272;12.818;2023-02-04T09:30:06;97588;;;4.3;50.8
77469;BME280;66567;50.272;12.818;2023-02-04T09:32:06;97594;;;4.2;51.3
77469;BME280;66567;50.272;12.818;2023-02-04T09:34:06;97600;;;4.0;51.0
77469;BME280;66567;50.272;12.818;2023-02-04T09:36:06;97608;;;3.7;51.3
77469;BME280;66567;50.272;12.818;2023-02-04T09:38:05;97607;;;3.5;51.7
77469;BME280;66567;50.272;12.818;2023-02-04T09:40:05;97608;;;3.2;51.6
77469;BME280;66567;50.272;12.818;2023-02-04T09:42:05;97614;;;3.0;52.7
77469;BME280;66567;50.272;12.818;2023-02-04T09:44:10;97620;;;2.8;52.8
77469;BME280;66567;50.272;12.818;2023-02-04T09:46:09;97627;;;2.7;53.4
77469;BME280;66567;50.272;12.818;2023-02-04T09:48:05;97636;;;2.5;53.7
77469;BME280;66567;50.272;12.818;2023-02-04T09:50:11;97639;;;2.4;54.4
77469;BME280;66567;50.272;12.818;2023-02-04T09:52:09;97643;;;2.3;54.1
77469;BME280;66567;50.272;12.818;2023-02-04T09:54:15;97649;;;2.2;54.3
77469;BME280;66567;50.272;12.818;2023-02-04T09:56:08;97652;;;2.1;54.9
77469;BME280;66567;50.272;12.818;2023-02-04T09:58:16;97656;;;2.1;55.1
77469;BME280;66567;50.272;12.818;2023-02-04T10:00:13;97657;;;2.0;55.5
77469;BME280;66567;50.272;12.818;2023-02-04T10:02:13;97660;;;2.0;55.6
77469;BME280;66567;50.272;12.818;2023-02-04T10:04:09;97661;;;2.0;55.1
77469;BME280;66567;50.272;12.818;2023-02-04T10:06:07;97661;;;2.0;54.9
77469;BME280;66567;50.272;12.818;2023-02-04T10:08:05;97662;;;2.0;55.8
77469;BME280;66567;50.272;12.818;2023-02-04T10:10:05;97665;;;2.0;56.5
77469;BME280;66567;50.272;12.818;2023-02-04T10:12:05;97669;;;2.0;57.0
77469;BME280;66567;50.272;12.818;2023-02-04T10:14:05;97670;;;2.0;57.1
77469;BME280;66567;50.272;12.818;2023-02-04T10:16:12;97671;;;2.0;56.9
77469;BME280;66567;50.272;12.818;2023-02-04T10:18:06;97671;;;2.0;54.8
77469;BME280;66567;50.272;12.818;2023-02-04T10:20:14;97672;;;2.0;54.7
77469;BME280;66567;50.272;12.818;2023-02-04T10:22:14;97674;;;2.1;54.6
77469;BME280;66567;50.272;12.818;2023-02-04T10:24:13;97671;;;2.1;54.6
77469;BME280;66567;50.272;12.818;2023-02-04T10:26:05;97671;;;2.1;55.1
77469;BME280;66567;50.272;12.818;2023-02-04T10:28:05;97673;;;2.3;55.4
77469;BME280;66567;50.272;12.818;2023-02-04T10:30:06;97675;;;2.7;55.1
77469;BME280;66567;50.272;12.818;2023-02-04T10:32:23;97672;;;3.1;55.1
77469;BME280;66567;50.272;12.818;2023-02-04T10:36:05;97674;;;3.8;50.7
77469;BME280;66567;50.272;12.818;2023-02-04T10:38:06;97673;;;3.8;50.9
77469;BME280;66567;50.272;12.818;2023-02-04T10:40:09;97671;;;4.0;51.4
77469;BME280;66567;50.272;12.818;2023-02-04T10:42:05;97672;;;4.2;50.1
77469;BME280;66567;50.272;12.818;2023-02-04T10:44:09;97671;;;4.5;51.4
77469;BME280;66567;50.272;12.818;2023-02-04T10:46:05;97670;;;4.8;49.5
77469;BME280;66567;50.272;12.818;2023-02-04T10:48:12;97672;;;5.0;48.4
77469;BME280;66567;50.272;12.818;2023-02-04T10:50:14;97673;;;5.0;47.4
77469;BME280;66567;50.272;12.818;2023-02-04T10:52:14;97673;;;5.0;49.4
77469;BME280;66567;50.272;12.818;2023-02-04T10:54:18;97673;;;5.2;48.8
77469;BME280;66567;50.272;12.818;2023-02-04T10:56:17;97672;;;5.3;48.5
77469;BME280;66567;50.272;12.818;2023-02-04T10:58:08;97672;;;5.2;47.8
77469;BME280;66567;50.272;12.818;2023-02-04T11:00:13;97676;;;5.1;47.5
77469;BME280;66567;50.272;12.818;2023-02-04T11:04:09;97672;;;4.6;47.9
77469;BME280;66567;50.272;12.818;2023-02-04T11:06:16;97675;;;4.4;49.0
77469;BME280;66567;50.272;12.818;2023-02-04T11:08:19;97675;;;4.3;48.8
77469;BME280;66567;50.272;12.818;2023-02-04T11:10:05;97677;;;4.2;49.2
77469;BME280;66567;50.272;12.818;2023-02-04T11:12:19;97681;;;4.2;50.2
77469;BME280;66567;50.272;12.818;2023-02-04T11:14:21;97677;;;4.4;50.1
77469;BME280;66567;50.272;12.818;2023-02-04T11:18:09;97678;;;4.8;48.8
77469;BME280;66567;50.272;12.818;2023-02-04T11:20:14;97679;;;4.8;49.3
77469;BME280;66567;50.272;12.818;2023-02-04T11:22:17;97680;;;4.8;48.2
77469;BME280;66567;50.272;12.818;2023-02-04T11:26:09;97685;;;4.5;48.5
77469;BME280;66567;50.272;12.818;2023-02-04T11:28:21;97690;;;4.3;48.4
77469;BME280;66567;50.272;12.818;2023-02-04T11:30:19;97689;;;4.1;48.8
77469;BME280;66567;50.272;12.818;2023-02-04T11:36:09;97695;;;3.5;50.0
77469;BME280;66567;50.272;12.818;2023-02-04T11:38:31;97697;;;3.3;51.4
77469;BME280;66567;50.272;12.818;2023-02-04T11:40:24;97698;;;3.2;50.9
77469;BME280;66567;50.272;12.818;2023-02-04T11:44:06;97696;;;2.9;50.5
77469;BME280;66567;50.272;12.818;2023-02-04T11:46:15;97696;;;2.8;50.6
77469;BME280;66567;50.272;12.818;2023-02-04T11:48:16;97697;;;2.7;50.3
77469;BME280;66567;50.272;12.818;2023-02-04T11:50:19;97695;;;2.6;50.7
77469;BME280;66567;50.272;12.818;2023-02-04T11:52:11;97697;;;2.9;51.6
77469;BME280;66567;50.272;12.818;2023-02-04T11:54:05;97694;;;3.2;50.9
77469;BME280;66567;50.272;12.818;2023-02-04T11:56:05;97696;;;3.4;50.2
77469;BME280;66567;50.272;12.818;2023-02-04T11:58:13;97702;;;3.5;50.4
77469;BME280;66567;50.272;12.818;2023-02-04T12:00:12;97703;;;3.4;49.5
77469;BME280;66567;50.272;12.818;2023-02-04T12:02:16;97709;;;3.3;49.3
77469;BME280;66567;50.272;12.818;2023-02-04T12:04:18;97709;;;3.2;50.2
77469;BME280;66567;50.272;12.818;2023-02-04T12:06:05;97714;;;3.1;50.5
77469;BME280;66567;50.272;12.818;2023-02-04T12:08:10;97716;;;2.9;50.1
77469;BME280;66567;50.272;12.818;2023-02-04T12:12:05;97713;;;2.8;51.3
77469;BME280;66567;50.272;12.818;2023-02-04T12:14:07;97714;;;2.7;51.2
77469;BME280;66567;50.272;12.818;2023-02-04T12:16:06;97719;;;2.7;51.1
77469;BME280;66567;50.272;12.818;2023-02-04T12:18:07;97721;;;2.7;51.6
77469;BME280;66567;50.272;12.818;2023-02-04T12:20:05;97721;;;2.7;52.2
77469;BME280;66567;50.272;12.818;2023-02-04T12:22:05;97722;;;2.7;51.9
77469;BME280;66567;50.272;12.818;2023-02-04T12:24:05;97721;;;2.8;51.8
77469;BME280;66567;50.272;12.818;2023-02-04T12:26:05;97722;;;2.8;51.5
77469;BME280;66567;50.272;12.818;2023-02-04T12:28:05;97725;;;2.7;51.9
77469;BME280;66567;50.272;12.818;2023-02-04T12:30:06;97725;;;2.7;52.1
77469;BME280;66567;50.272;12.818;2023-02-04T12:32:05;97722;;;2.6;51.5
77469;BME280;66567;50.272;12.818;2023-02-04T12:34:05;97724;;;2.6;51.9
77469;BME280;66567;50.272;12.818;2023-02-04T12:36:06;97717;;;2.5;51.1
77469;BME280;66567;50.272;12.818;2023-02-04T12:38:05;97714;;;2.4;51.4
77469;BME280;66567;50.272;12.818;2023-02-04T12:40:06;97715;;;2.5;51.9
77469;BME280;66567;50.272;12.818;2023-02-04T12:42:05;97718;;;2.9;50.3
77469;BME280;66567;50.272;12.818;2023-02-04T12:44:05;97717;;;3.2;49.6
77469;BME280;66567;50.272;12.818;2023-02-04T12:46:05;97716;;;3.4;48.3
77469;BME280;66567;50.272;12.818;2023-02-04T12:48:05;97717;;;3.6;48.0
77469;BME280;66567;50.272;12.818;2023-02-04T12:50:06;97718;;;3.7;49.0
77469;BME280;66567;50.272;12.818;2023-02-04T12:52:05;97717;;;3.8;47.9
77469;BME280;66567;50.272;12.818;2023-02-04T12:54:05;97716;;;4.0;47.3
77469;BME280;66567;50.272;12.818;2023-02-04T12:56:05;97713;;;4.1;46.2
77469;BME280;66567;50.272;12.818;2023-02-04T12:58:05;97711;;;4.0;46.3
77469;BME280;66567;50.272;12.818;2023-02-04T13:00:06;97710;;;3.9;45.4
77469;BME280;66567;50.272;12.818;2023-02-04T13:02:07;97712;;;3.8;43.8
77469;BME280;66567;50.272;12.818;2023-02-04T13:04:05;97713;;;3.6;44.1
77469;BME280;66567;50.272;12.818;2023-02-04T13:06:05;97714;;;3.5;43.9
77469;BME280;66567;50.272;12.818;2023-02-04T13:08:05;97716;;;3.5;44.8
77469;BME280;66567;50.272;12.818;2023-02-04T13:10:07;97715;;;3.5;45.2
77469;BME280;66567;50.272;12.818;2023-02-04T13:12:05;97716;;;3.6;45.3
77469;BME280;66567;50.272;12.818;2023-02-04T13:14:05;97718;;;3.7;45.5
77469;BME280;66567;50.272;12.818;2023-02-04T13:16:05;97719;;;3.6;45.9
77469;BME280;66567;50.272;12.818;2023-02-04T13:18:07;97719;;;3.6;46.3
77469;BME280;66567;50.272;12.818;2023-02-04T13:20:06;97721;;;3.5;46.5
77469;BME280;66567;50.272;12.818;2023-02-04T13:22:05;97726;;;3.4;46.9
77469;BME280;66567;50.272;12.818;2023-02-04T13:24:05;97728;;;3.3;47.0
77469;BME280;66567;50.272;12.818;2023-02-04T13:26:07;97731;;;3.2;47.6
77469;BME280;66567;50.272;12.818;2023-02-04T13:28:05;97733;;;3.1;47.9
77469;BME280;66567;50.272;12.818;2023-02-04T13:30:06;97734;;;3.1;48.5
77469;BME280;66567;50.272;12.818;2023-02-04T13:32:05;97734;;;3.2;48.3
77469;BME280;66567;50.272;12.818;2023-02-04T13:34:05;97734;;;3.2;49.0
77469;BME280;66567;50.272;12.818;2023-02-04T13:36:05;97733;;;3.1;48.8
77469;BME280;66567;50.272;12.818;2023-02-04T13:38:05;97733;;;3.1;49.4
77469;BME280;66567;50.272;12.818;2023-02-04T13:40:07;97734;;;3.0;49.8
77469;BME280;66567;50.272;12.818;2023-02-04T13:42:05;97737;;;3.0;49.1
77469;BME280;66567;50.272;12.818;2023-02-04T13:44:05;97740;;;2.9;49.5
77469;BME280;66567;50.272;12.818;2023-02-04T13:46:05;97738;;;2.9;48.5
77469;BME280;66567;50.272;12.818;2023-02-04T13:48:05;97737;;;2.9;49.0
77469;BME280;66567;50.272;12.818;2023-02-04T13:50:06;97739;;;2.8;49.2
77469;BME280;66567;50.272;12.818;2023-02-04T13:52:05;97738;;;2.7;49.7
77469;BME280;66567;50.272;12.818;2023-02-04T13:54:05;97740;;;2.7;50.2
77469;BME280;66567;50.272;12.818;2023-02-04T13:56:05;97740;;;2.7;50.2
77469;BME280;66567;50.272;12.818;2023-02-04T13:58:05;97740;;;2.7;49.6
77469;BME280;66567;50.272;12.818;2023-02-04T14:00:06;97741;;;2.7;50.0
77469;BME280;66567;50.272;12.818;2023-02-04T14:02:05;97741;;;2.8;49.9
77469;BME280;66567;50.272;12.818;2023-02-04T14:04:05;97740;;;2.8;50.1
77469;BME280;66567;50.272;12.818;2023-02-04T14:06:05;97740;;;2.8;49.6
77469;BME280;66567;50.272;12.818;2023-02-04T14:08:05;97738;;;2.8;49.7
77469;BME280;66567;50.272;12.818;2023-02-04T14:10:06;97734;;;2.8;50.1
77469;BME280;66567;50.272;12.818;2023-02-04T14:12:05;97737;;;2.8;49.8
77469;BME280;66567;50.272;12.818;2023-02-04T14:14:06;97739;;;2.8;49.6
77469;BME280;66567;50.272;12.818;2023-02-04T14:16:08;97737;;;2.7;49.3
77469;BME280;66567;50.272;12.818;2023-02-04T14:18:06;97740;;;2.6;49.4
77469;BME280;66567;50.272;12.818;2023-02-04T14:20:06;97743;;;2.6;49.9
77469;BME280;66567;50.272;12.818;2023-02-04T14:22:06;97743;;;2.5;50.4
77469;BME280;66567;50.272;12.818;2023-02-04T14:24:05;97739;;;2.4;50.2
77469;BME280;66567;50.272;12.818;2023-02-04T14:26:05;97739;;;2.4;49.7
77469;BME280;66567;50.272;12.818;2023-02-04T14:28:05;97739;;;2.3;50.3
77469;BME280;66567;50.272;12.818;2023-02-04T14:30:06;97739;;;2.2;51.1
77469;BME280;66567;50.272;12.818;2023-02-04T14:32:05;97734;;;2.2;51.4
77469;BME280;66567;50.272;12.818;2023-02-04T14:34:05;97733;;;2.2;51.7
77469;BME280;66567;50.272;12.818;2023-02-04T14:36:05;97729;;;2.1;51.3
77469;BME280;66567;50.272;12.818;2023-02-04T14:38:05;97727;;;2.0;51.6
77469;BME280;66567;50.272;12.818;2023-02-04T14:40:06;97724;;;2.0;51.8
77469;BME280;66567;50.272;12.818;2023-02-04T14:42:05;97726;;;1.9;52.1
77469;BME280;66567;50.272;12.818;2023-02-04T14:44:05;97727;;;1.8;52.0
77469;BME280;66567;50.272;12.818;2023-02-04T14:46:05;97727;;;1.7;52.5
77469;BME280;66567;50.272;12.818;2023-02-04T14:48:06;97729;;;1.7;52.5
77469;BME280;66567;50.272;12.818;2023-02-04T14:50:07;97730;;;1.6;53.1
77469;BME280;66567;50.272;12.818;2023-02-04T14:52:05;97734;;;1.5;53.5
77469;BME280;66567;50.272;12.818;2023-02-04T14:54:05;97734;;;1.5;53.2
77469;BME280;66567;50.272;12.818;2023-02-04T14:56:05;97736;;;1.5;53.5
77469;BME280;66567;50.272;12.818;2023-02-04T14:58:06;97737;;;1.4;53.1
77469;BME280;66567;50.272;12.818;2023-02-04T15:00:06;97741;;;1.4;53.6
77469;BME280;66567;50.272;12.818;2023-02-04T15:02:06;97740;;;1.4;53.6
77469;BME280;66567;50.272;12.818;2023-02-04T15:04:05;97747;;;1.4;53.9
77469;BME280;66567;50.272;12.818;2023-02-04T15:06:05;97750;;;1.3;54.2
77469;BME280;66567;50.272;12.818;2023-02-04T15:08:05;97749;;;1.3;54.3
77469;BME280;66567;50.272;12.818;2023-02-04T15:10:06;97751;;;1.3;54.2
77469;BME280;66567;50.272;12.818;2023-02-04T15:12:06;97749;;;1.3;53.3
77469;BME280;66567;50.272;12.818;2023-02-04T15:14:05;97751;;;1.2;53.0
77469;BME280;66567;50.272;12.818;2023-02-04T15:16:05;97749;;;1.2;52.8
77469;BME280;66567;50.272;12.818;2023-02-04T15:18:05;97751;;;1.1;52.8
77469;BME280;66567;50.272;12.818;2023-02-04T15:20:07;97751;;;1.1;53.2
77469;BME280;66567;50.272;12.818;2023-02-04T15:22:05;97751;;;1.0;53.3
77469;BME280;66567;50.272;12.818;2023-02-04T15:24:05;97756;;;1.0;52.9
77469;BME280;66567;50.272;12.818;2023-02-04T15:26:05;97758;;;0.9;52.8
77469;BME280;66567;50.272;12.818;2023-02-04T15:28:05;97756;;;0.8;52.4
77469;BME280;66567;50.272;12.818;2023-02-04T15:30:05;97758;;;0.8;52.6
77469;BME280;66567;50.272;12.818;2023-02-04T15:32:05;97765;;;0.8;52.9
77469;BME280;66567;50.272;12.818;2023-02-04T15:34:05;97765;;;0.7;53.4
77469;BME280;66567;50.272;12.818;2023-02-04T15:36:05;97762;;;0.7;53.3
77469;BME280;66567;50.272;12.818;2023-02-04T15:38:05;97770;;;0.7;53.8
77469;BME280;66567;50.272;12.818;2023-02-04T15:40:06;97771;;;0.6;53.8
77469;BME280;66567;50.272;12.818;2023-02-04T15:42:05;97770;;;0.5;53.9
77469;BME280;66567;50.272;12.818;2023-02-04T15:44:05;97769;;;0.5;53.6
77469;BME280;66567;50.272;12.818;2023-02-04T15:46:05;97769;;;0.4;53.9
77469;BME280;66567;50.272;12.818;2023-02-04T15:48:06;97766;;;0.4;54.0
77469;BME280;66567;50.272;12.818;2023-02-04T15:50:08;97766;;;0.4;54.2